sensor_id;sensor_type;location;lat;lon;timestamp;temperature;humidity
74488;DHT22;63019;51.080;13.642;2023-08-30T00:31:11;13.60;99.90
74488;DHT22;63019;51.080;13.642;2023-08-30T00:38:45;13.60;99.90
74488;DHT22;63019;51.080;13.642;2023-08-30T00:53:18;13.70;99.90
74488;DHT22;63019;51.080;13.642;2023-08-30T01:17:56;13.80;99.90
74488;DHT22;63019;51.080;13.642;2023-08-30T01:43:59;13.80;99.90
74488;DHT22;63019;51.080;13.642;2023-08-30T02:15:15;13.80;99.90
74488;DHT22;63019;51.080;13.642;2023-08-30T02:17:12;13.70;99.90
74488;DHT22;63019;51.080;13.642;2023-08-30T02:26:36;13.70;99.90
74488;DHT22;63019;51.080;13.642;2023-08-30T02:33:49;13.70;99.90
74488;DHT22;63019;51.080;13.642;2023-08-30T02:36:22;13.70;99.90
74488;DHT22;63019;51.080;13.642;2023-08-30T03:06:24;13.80;99.90
74488;DHT22;63019;51.080;13.642;2023-08-30T03:16:20;13.70;99.90
74488;DHT22;63019;51.080;13.642;2023-08-30T04:32:49;13.70;99.90
74488;DHT22;63019;51.080;13.642;2023-08-30T06:14:02;14.30;99.90
74488;DHT22;63019;51.080;13.642;2023-08-30T06:41:04;14.70;99.90
74488;DHT22;63019;51.080;13.642;2023-08-30T06:45:01;14.70;99.90
74488;DHT22;63019;51.080;13.642;2023-08-30T06:52:31;14.80;99.90
74488;DHT22;63019;51.080;13.642;2023-08-30T07:12:03;15.20;99.90
74488;DHT22;63019;51.080;13.642;2023-08-30T07:52:02;15.70;99.90
74488;DHT22;63019;51.080;13.642;2023-08-30T07:54:07;15.80;99.90
74488;DHT22;63019;51.080;13.642;2023-08-30T08:01:53;15.80;99.90
74488;DHT22;63019;51.080;13.642;2023-08-30T08:03:45;15.80;99.90
74488;DHT22;63019;51.080;13.642;2023-08-30T08:05:40;15.80;99.90
74488;DHT22;63019;51.080;13.642;2023-08-30T08:09:51;15.90;99.90
74488;DHT22;63019;51.080;13.642;2023-08-30T08:11:30;15.90;99.90
74488;DHT22;63019;51.080;13.642;2023-08-30T08:12:33;15.90;99.90
74488;DHT22;63019;51.080;13.642;2023-08-30T08:13:42;15.90;99.90
74488;DHT22;63019;51.080;13.642;2023-08-30T08:15:49;15.90;99.90
74488;DHT22;63019;51.080;13.642;2023-08-30T08:19:46;16.00;99.90
74488;DHT22;63019;51.080;13.642;2023-08-30T08:21:32;16.20;99.90
74488;DHT22;63019;51.080;13.642;2023-08-30T08:22:59;16.20;99.90
74488;DHT22;63019;51.080;13.642;2023-08-30T08:24:28;16.20;99.90
74488;DHT22;63019;51.080;13.642;2023-08-30T08:25:46;16.30;99.90
74488;DHT22;63019;51.080;13.642;2023-08-30T08:27:13;16.30;99.90
74488;DHT22;63019;51.080;13.642;2023-08-30T08:28:38;16.40;99.90
74488;DHT22;63019;51.080;13.642;2023-08-30T08:30:11;16.40;99.90
74488;DHT22;63019;51.080;13.642;2023-08-30T08:31:54;16.50;99.90
74488;DHT22;63019;51.080;13.642;2023-08-30T08:33:35;16.50;99.90
74488;DHT22;63019;51.080;13.642;2023-08-30T08:35:06;16.60;99.90
74488;DHT22;63019;51.080;13.642;2023-08-30T08:36:28;16.60;99.90
74488;DHT22;63019;51.080;13.642;2023-08-30T08:39:32;16.70;99.90
74488;DHT22;63019;51.080;13.642;2023-08-30T08:41:17;16.80;99.90
74488;DHT22;63019;51.080;13.642;2023-08-30T08:42:32;16.90;99.90
74488;DHT22;63019;51.080;13.642;2023-08-30T08:44:12;16.90;99.90
74488;DHT22;63019;51.080;13.642;2023-08-30T08:45:30;17.00;99.90
74488;DHT22;63019;51.080;13.642;2023-08-30T08:46:46;17.00;99.90
74488;DHT22;63019;51.080;13.642;2023-08-30T08:48:09;17.10;99.90
74488;DHT22;63019;51.080;13.642;2023-08-30T08:49:38;17.10;99.90
74488;DHT22;63019;51.080;13.642;2023-08-30T08:50:56;17.10;99.90
74488;DHT22;63019;51.080;13.642;2023-08-30T08:52:00;17.10;99.90
74488;DHT22;63019;51.080;13.642;2023-08-30T08:53:19;17.20;99.90
74488;DHT22;63019;51.080;13.642;2023-08-30T08:54:26;17.20;99.90
74488;DHT22;63019;51.080;13.642;2023-08-30T08:56:16;17.20;99.90
74488;DHT22;63019;51.080;13.642;2023-08-30T08:57:52;17.20;99.90
74488;DHT22;63019;51.080;13.642;2023-08-30T08:58:59;17.20;99.90
74488;DHT22;63019;51.080;13.642;2023-08-30T09:00:09;17.30;99.90
74488;DHT22;63019;51.080;13.642;2023-08-30T09:01:28;17.40;99.90
74488;DHT22;63019;51.080;13.642;2023-08-30T09:02:36;17.50;99.90
74488;DHT22;63019;51.080;13.642;2023-08-30T09:04:01;17.50;99.90
74488;DHT22;63019;51.080;13.642;2023-08-30T09:05:49;17.60;99.90
74488;DHT22;63019;51.080;13.642;2023-08-30T09:06:52;17.70;99.90
74488;DHT22;63019;51.080;13.642;2023-08-30T09:08:02;17.70;99.90
74488;DHT22;63019;51.080;13.642;2023-08-30T09:09:14;17.70;99.90
74488;DHT22;63019;51.080;13.642;2023-08-30T09:10:24;17.70;99.90
74488;DHT22;63019;51.080;13.642;2023-08-30T09:12:57;17.80;99.90
74488;DHT22;63019;51.080;13.642;2023-08-30T09:14:17;17.90;99.90
74488;DHT22;63019;51.080;13.642;2023-08-30T09:15:32;18.00;99.90
74488;DHT22;63019;51.080;13.642;2023-08-30T09:16:35;18.10;99.90
74488;DHT22;63019;51.080;13.642;2023-08-30T09:17:44;18.10;99.90
74488;DHT22;63019;51.080;13.642;2023-08-30T09:19:09;18.10;99.90
74488;DHT22;63019;51.080;13.642;2023-08-30T09:20:23;18.10;99.90
74488;DHT22;63019;51.080;13.642;2023-08-30T09:21:53;18.00;99.90
74488;DHT22;63019;51.080;13.642;2023-08-30T09:22:58;18.00;99.90
74488;DHT22;63019;51.080;13.642;2023-08-30T09:24:43;18.00;99.90
74488;DHT22;63019;51.080;13.642;2023-08-30T09:25:59;18.10;99.90
74488;DHT22;63019;51.080;13.642;2023-08-30T09:27:31;18.10;99.90
74488;DHT22;63019;51.080;13.642;2023-08-30T09:28:49;18.10;99.90
74488;DHT22;63019;51.080;13.642;2023-08-30T09:30:05;18.10;99.90
74488;DHT22;63019;51.080;13.642;2023-08-30T09:31:22;18.20;99.90
74488;DHT22;63019;51.080;13.642;2023-08-30T09:32:37;18.30;99.90
74488;DHT22;63019;51.080;13.642;2023-08-30T09:33:40;18.30;99.90
74488;DHT22;63019;51.080;13.642;2023-08-30T09:34:48;18.40;99.90
74488;DHT22;63019;51.080;13.642;2023-08-30T09:35:58;18.30;99.90
74488;DHT22;63019;51.080;13.642;2023-08-30T09:37:25;18.30;99.90
74488;DHT22;63019;51.080;13.642;2023-08-30T09:38:47;18.30;99.90
74488;DHT22;63019;51.080;13.642;2023-08-30T09:40:27;18.20;99.90
74488;DHT22;63019;51.080;13.642;2023-08-30T09:42:00;18.20;99.90
74488;DHT22;63019;51.080;13.642;2023-08-30T09:43:42;18.20;99.90
74488;DHT22;63019;51.080;13.642;2023-08-30T09:45:30;18.20;99.90
74488;DHT22;63019;51.080;13.642;2023-08-30T09:46:45;18.30;99.90
74488;DHT22;63019;51.080;13.642;2023-08-30T09:47:56;18.30;99.90
74488;DHT22;63019;51.080;13.642;2023-08-30T09:49:24;18.40;99.90
74488;DHT22;63019;51.080;13.642;2023-08-30T09:50:53;18.40;99.90
74488;DHT22;63019;51.080;13.642;2023-08-30T09:52:24;18.50;99.90
74488;DHT22;63019;51.080;13.642;2023-08-30T09:53:49;18.50;99.90
74488;DHT22;63019;51.080;13.642;2023-08-30T09:55:35;18.60;99.90
74488;DHT22;63019;51.080;13.642;2023-08-30T09:56:41;18.60;99.90
74488;DHT22;63019;51.080;13.642;2023-08-30T09:57:53;18.70;99.90
74488;DHT22;63019;51.080;13.642;2023-08-30T09:58:59;18.80;99.90
74488;DHT22;63019;51.080;13.642;2023-08-30T10:00:19;18.90;99.90
74488;DHT22;63019;51.080;13.642;2023-08-30T10:01:22;18.90;99.90
74488;DHT22;63019;51.080;13.642;2023-08-30T10:02:30;19.00;99.90
74488;DHT22;63019;51.080;13.642;2023-08-30T10:03:41;19.00;99.90
74488;DHT22;63019;51.080;13.642;2023-08-30T10:06:45;19.00;99.90
74488;DHT22;63019;51.080;13.642;2023-08-30T10:10:11;19.10;99.90
74488;DHT22;63019;51.080;13.642;2023-08-30T10:11:36;19.10;99.90
74488;DHT22;63019;51.080;13.642;2023-08-30T10:12:55;19.10;99.90
74488;DHT22;63019;51.080;13.642;2023-08-30T10:14:12;19.20;99.90
74488;DHT22;63019;51.080;13.642;2023-08-30T10:15:45;19.30;99.90
74488;DHT22;63019;51.080;13.642;2023-08-30T10:17:02;19.30;99.90
74488;DHT22;63019;51.080;13.642;2023-08-30T10:18:11;19.40;99.90
74488;DHT22;63019;51.080;13.642;2023-08-30T10:19:30;19.40;99.90
74488;DHT22;63019;51.080;13.642;2023-08-30T10:20:44;19.40;99.90
74488;DHT22;63019;51.080;13.642;2023-08-30T10:22:48;19.50;99.90
74488;DHT22;63019;51.080;13.642;2023-08-30T10:24:14;19.70;99.90
74488;DHT22;63019;51.080;13.642;2023-08-30T10:26:25;19.80;99.90
74488;DHT22;63019;51.080;13.642;2023-08-30T10:28:26;19.80;99.90
74488;DHT22;63019;51.080;13.642;2023-08-30T10:29:57;19.70;99.90
74488;DHT22;63019;51.080;13.642;2023-08-30T10:31:10;19.70;99.90
74488;DHT22;63019;51.080;13.642;2023-08-30T10:33:12;19.70;99.90
74488;DHT22;63019;51.080;13.642;2023-08-30T10:34:37;19.70;99.90
74488;DHT22;63019;51.080;13.642;2023-08-30T10:35:51;19.70;99.90
74488;DHT22;63019;51.080;13.642;2023-08-30T10:37:10;19.70;99.90
74488;DHT22;63019;51.080;13.642;2023-08-30T10:38:48;19.80;99.50
74488;DHT22;63019;51.080;13.642;2023-08-30T10:40:00;19.80;99.30
74488;DHT22;63019;51.080;13.642;2023-08-30T10:41:11;19.80;99.50
74488;DHT22;63019;51.080;13.642;2023-08-30T10:45:31;19.90;99.90
74488;DHT22;63019;51.080;13.642;2023-08-30T10:47:02;20.00;99.90
74488;DHT22;63019;51.080;13.642;2023-08-30T10:48:13;19.90;99.00
74488;DHT22;63019;51.080;13.642;2023-08-30T10:49:21;19.80;99.10
74488;DHT22;63019;51.080;13.642;2023-08-30T10:50:31;19.70;99.10
74488;DHT22;63019;51.080;13.642;2023-08-30T10:51:40;19.70;99.10
74488;DHT22;63019;51.080;13.642;2023-08-30T10:52:55;19.80;99.30
74488;DHT22;63019;51.080;13.642;2023-08-30T10:54:39;19.90;99.90
74488;DHT22;63019;51.080;13.642;2023-08-30T10:56:28;19.90;99.00
74488;DHT22;63019;51.080;13.642;2023-08-30T10:57:33;19.90;98.60
74488;DHT22;63019;51.080;13.642;2023-08-30T10:59:21;19.90;98.60
74488;DHT22;63019;51.080;13.642;2023-08-30T11:00:54;20.00;98.30
74488;DHT22;63019;51.080;13.642;2023-08-30T11:02:01;20.10;98.10
74488;DHT22;63019;51.080;13.642;2023-08-30T11:03:13;20.20;98.70
74488;DHT22;63019;51.080;13.642;2023-08-30T11:04:29;20.40;98.90
74488;DHT22;63019;51.080;13.642;2023-08-30T11:05:40;20.40;98.40
74488;DHT22;63019;51.080;13.642;2023-08-30T11:07:05;20.60;96.90
74488;DHT22;63019;51.080;13.642;2023-08-30T11:08:10;20.70;96.90
74488;DHT22;63019;51.080;13.642;2023-08-30T11:09:27;20.80;96.80
74488;DHT22;63019;51.080;13.642;2023-08-30T11:10:38;20.80;96.60
74488;DHT22;63019;51.080;13.642;2023-08-30T11:12:23;20.80;96.20
74488;DHT22;63019;51.080;13.642;2023-08-30T11:13:36;20.90;96.80
74488;DHT22;63019;51.080;13.642;2023-08-30T11:14:46;21.00;96.50
74488;DHT22;63019;51.080;13.642;2023-08-30T11:15:50;21.10;96.60
74488;DHT22;63019;51.080;13.642;2023-08-30T11:16:52;21.10;96.30
74488;DHT22;63019;51.080;13.642;2023-08-30T11:18:02;21.10;96.30
74488;DHT22;63019;51.080;13.642;2023-08-30T11:19:07;21.30;96.10
74488;DHT22;63019;51.080;13.642;2023-08-30T11:20:14;21.30;95.30
74488;DHT22;63019;51.080;13.642;2023-08-30T11:21:18;21.20;95.50
74488;DHT22;63019;51.080;13.642;2023-08-30T11:22:24;21.10;96.30
74488;DHT22;63019;51.080;13.642;2023-08-30T11:23:27;21.20;96.90
74488;DHT22;63019;51.080;13.642;2023-08-30T11:24:29;21.30;97.10
74488;DHT22;63019;51.080;13.642;2023-08-30T11:25:34;21.40;97.50
74488;DHT22;63019;51.080;13.642;2023-08-30T11:26:43;21.40;96.70
74488;DHT22;63019;51.080;13.642;2023-08-30T11:27:48;21.50;96.00
74488;DHT22;63019;51.080;13.642;2023-08-30T11:28:50;21.40;95.40
74488;DHT22;63019;51.080;13.642;2023-08-30T11:30:01;21.50;95.50
74488;DHT22;63019;51.080;13.642;2023-08-30T11:31:07;21.50;96.00
74488;DHT22;63019;51.080;13.642;2023-08-30T11:32:09;21.70;95.70
74488;DHT22;63019;51.080;13.642;2023-08-30T11:33:14;21.80;96.30
74488;DHT22;63019;51.080;13.642;2023-08-30T11:34:23;21.90;96.60
74488;DHT22;63019;51.080;13.642;2023-08-30T11:35:27;22.20;96.20
74488;DHT22;63019;51.080;13.642;2023-08-30T11:36:38;22.30;95.60
74488;DHT22;63019;51.080;13.642;2023-08-30T11:37:41;22.20;93.30
74488;DHT22;63019;51.080;13.642;2023-08-30T11:38:49;22.20;93.70
74488;DHT22;63019;51.080;13.642;2023-08-30T11:39:52;22.00;94.20
74488;DHT22;63019;51.080;13.642;2023-08-30T11:40:55;22.00;95.00
74488;DHT22;63019;51.080;13.642;2023-08-30T11:41:58;21.90;94.10
74488;DHT22;63019;51.080;13.642;2023-08-30T11:43:17;21.80;94.70
74488;DHT22;63019;51.080;13.642;2023-08-30T11:44:19;21.70;94.40
74488;DHT22;63019;51.080;13.642;2023-08-30T11:45:33;21.60;94.70
74488;DHT22;63019;51.080;13.642;2023-08-30T11:46:45;21.50;94.30
74488;DHT22;63019;51.080;13.642;2023-08-30T11:47:50;21.40;94.10
74488;DHT22;63019;51.080;13.642;2023-08-30T11:48:55;21.30;94.10
74488;DHT22;63019;51.080;13.642;2023-08-30T11:49:57;21.20;94.30
74488;DHT22;63019;51.080;13.642;2023-08-30T11:51:04;21.10;95.30
74488;DHT22;63019;51.080;13.642;2023-08-30T11:52:24;21.00;94.70
74488;DHT22;63019;51.080;13.642;2023-08-30T11:53:40;20.90;94.90
74488;DHT22;63019;51.080;13.642;2023-08-30T11:54:47;20.90;95.90
74488;DHT22;63019;51.080;13.642;2023-08-30T11:56:03;21.00;96.10
74488;DHT22;63019;51.080;13.642;2023-08-30T11:57:08;21.20;95.30
74488;DHT22;63019;51.080;13.642;2023-08-30T11:58:10;21.20;95.00
74488;DHT22;63019;51.080;13.642;2023-08-30T11:59:35;21.20;95.00
74488;DHT22;63019;51.080;13.642;2023-08-30T12:00:48;21.30;94.90
74488;DHT22;63019;51.080;13.642;2023-08-30T12:01:57;21.30;95.20
74488;DHT22;63019;51.080;13.642;2023-08-30T12:03:07;21.30;95.80
74488;DHT22;63019;51.080;13.642;2023-08-30T12:04:15;21.40;95.60
74488;DHT22;63019;51.080;13.642;2023-08-30T12:05:31;21.60;95.00
74488;DHT22;63019;51.080;13.642;2023-08-30T12:06:35;21.70;95.00
74488;DHT22;63019;51.080;13.642;2023-08-30T12:07:37;21.70;94.60
74488;DHT22;63019;51.080;13.642;2023-08-30T12:08:44;21.70;94.90
74488;DHT22;63019;51.080;13.642;2023-08-30T12:09:46;21.60;94.80
74488;DHT22;63019;51.080;13.642;2023-08-30T12:10:48;21.60;94.00
74488;DHT22;63019;51.080;13.642;2023-08-30T12:11:50;21.50;94.50
74488;DHT22;63019;51.080;13.642;2023-08-30T12:12:53;21.50;94.70
74488;DHT22;63019;51.080;13.642;2023-08-30T12:14:03;21.50;95.50
74488;DHT22;63019;51.080;13.642;2023-08-30T12:15:29;21.50;95.50
74488;DHT22;63019;51.080;13.642;2023-08-30T12:17:03;21.50;95.70
74488;DHT22;63019;51.080;13.642;2023-08-30T12:18:15;21.60;95.40
74488;DHT22;63019;51.080;13.642;2023-08-30T12:19:18;21.70;95.30
74488;DHT22;63019;51.080;13.642;2023-08-30T12:20:20;21.70;94.70
74488;DHT22;63019;51.080;13.642;2023-08-30T12:21:27;21.70;95.20
74488;DHT22;63019;51.080;13.642;2023-08-30T12:22:38;21.70;94.70
74488;DHT22;63019;51.080;13.642;2023-08-30T12:23:44;21.80;95.40
74488;DHT22;63019;51.080;13.642;2023-08-30T12:24:50;21.80;95.10
74488;DHT22;63019;51.080;13.642;2023-08-30T12:26:10;21.80;94.50
74488;DHT22;63019;51.080;13.642;2023-08-30T12:27:13;21.70;95.00
74488;DHT22;63019;51.080;13.642;2023-08-30T12:28:18;21.70;95.00
74488;DHT22;63019;51.080;13.642;2023-08-30T12:29:20;21.70;94.80
74488;DHT22;63019;51.080;13.642;2023-08-30T12:30:22;21.70;93.60
74488;DHT22;63019;51.080;13.642;2023-08-30T12:31:24;21.70;93.50
74488;DHT22;63019;51.080;13.642;2023-08-30T12:32:27;21.60;94.30
74488;DHT22;63019;51.080;13.642;2023-08-30T12:33:30;21.60;94.90
74488;DHT22;63019;51.080;13.642;2023-08-30T12:34:42;21.50;94.40
74488;DHT22;63019;51.080;13.642;2023-08-30T12:35:46;21.50;94.70
74488;DHT22;63019;51.080;13.642;2023-08-30T12:36:51;21.40;94.30
74488;DHT22;63019;51.080;13.642;2023-08-30T12:37:53;21.40;94.30
74488;DHT22;63019;51.080;13.642;2023-08-30T12:38:56;21.40;93.60
74488;DHT22;63019;51.080;13.642;2023-08-30T12:39:58;21.40;93.20
74488;DHT22;63019;51.080;13.642;2023-08-30T12:41:01;21.40;92.90
74488;DHT22;63019;51.080;13.642;2023-08-30T12:42:09;21.30;93.10
74488;DHT22;63019;51.080;13.642;2023-08-30T12:43:17;21.30;93.40
74488;DHT22;63019;51.080;13.642;2023-08-30T12:44:20;21.40;93.60
74488;DHT22;63019;51.080;13.642;2023-08-30T12:45:23;21.40;93.20
74488;DHT22;63019;51.080;13.642;2023-08-30T12:46:25;21.30;94.50
74488;DHT22;63019;51.080;13.642;2023-08-30T12:47:27;21.30;95.50
74488;DHT22;63019;51.080;13.642;2023-08-30T12:48:30;21.40;95.40
74488;DHT22;63019;51.080;13.642;2023-08-30T12:49:32;21.60;94.20
74488;DHT22;63019;51.080;13.642;2023-08-30T12:50:38;21.80;94.60
74488;DHT22;63019;51.080;13.642;2023-08-30T12:51:40;22.10;94.00
74488;DHT22;63019;51.080;13.642;2023-08-30T12:52:43;22.30;93.00
74488;DHT22;63019;51.080;13.642;2023-08-30T12:53:45;22.40;92.40
74488;DHT22;63019;51.080;13.642;2023-08-30T12:54:49;22.40;92.60
74488;DHT22;63019;51.080;13.642;2023-08-30T12:56:00;22.40;93.10
74488;DHT22;63019;51.080;13.642;2023-08-30T12:57:02;22.40;92.80
74488;DHT22;63019;51.080;13.642;2023-08-30T12:58:05;22.30;91.80
74488;DHT22;63019;51.080;13.642;2023-08-30T12:59:07;22.20;92.40
74488;DHT22;63019;51.080;13.642;2023-08-30T13:00:20;22.10;92.60
74488;DHT22;63019;51.080;13.642;2023-08-30T13:01:32;22.00;91.90
74488;DHT22;63019;51.080;13.642;2023-08-30T13:02:34;21.80;92.50
74488;DHT22;63019;51.080;13.642;2023-08-30T13:03:37;21.80;92.60
74488;DHT22;63019;51.080;13.642;2023-08-30T13:04:39;21.80;92.10
74488;DHT22;63019;51.080;13.642;2023-08-30T13:05:41;21.90;91.20
74488;DHT22;63019;51.080;13.642;2023-08-30T13:06:43;21.80;91.80
74488;DHT22;63019;51.080;13.642;2023-08-30T13:07:48;21.70;92.10
74488;DHT22;63019;51.080;13.642;2023-08-30T13:08:51;21.70;91.80
74488;DHT22;63019;51.080;13.642;2023-08-30T13:09:55;21.70;91.60
74488;DHT22;63019;51.080;13.642;2023-08-30T13:10:59;21.70;91.60
74488;DHT22;63019;51.080;13.642;2023-08-30T13:12:08;21.70;92.20
74488;DHT22;63019;51.080;13.642;2023-08-30T13:13:10;21.70;92.40
74488;DHT22;63019;51.080;13.642;2023-08-30T13:14:12;21.80;92.40
74488;DHT22;63019;51.080;13.642;2023-08-30T13:15:15;21.90;92.50
74488;DHT22;63019;51.080;13.642;2023-08-30T13:16:17;22.00;92.90
74488;DHT22;63019;51.080;13.642;2023-08-30T13:17:19;22.00;92.30
74488;DHT22;63019;51.080;13.642;2023-08-30T13:18:26;21.90;91.70
74488;DHT22;63019;51.080;13.642;2023-08-30T13:19:31;21.80;91.90
74488;DHT22;63019;51.080;13.642;2023-08-30T13:20:38;21.70;91.70
74488;DHT22;63019;51.080;13.642;2023-08-30T13:21:42;21.60;91.50
74488;DHT22;63019;51.080;13.642;2023-08-30T13:22:45;21.50;91.70
74488;DHT22;63019;51.080;13.642;2023-08-30T13:23:47;21.40;91.70
74488;DHT22;63019;51.080;13.642;2023-08-30T13:24:50;21.30;92.10
74488;DHT22;63019;51.080;13.642;2023-08-30T13:25:57;21.30;91.90
74488;DHT22;63019;51.080;13.642;2023-08-30T13:27:04;21.20;92.30
74488;DHT22;63019;51.080;13.642;2023-08-30T13:28:08;21.10;92.00
74488;DHT22;63019;51.080;13.642;2023-08-30T13:29:21;21.10;92.10
74488;DHT22;63019;51.080;13.642;2023-08-30T13:30:24;21.10;92.90
74488;DHT22;63019;51.080;13.642;2023-08-30T13:31:34;21.20;92.20
74488;DHT22;63019;51.080;13.642;2023-08-30T13:32:37;21.30;92.20
74488;DHT22;63019;51.080;13.642;2023-08-30T13:33:39;21.50;92.20
74488;DHT22;63019;51.080;13.642;2023-08-30T13:34:44;21.60;92.50
74488;DHT22;63019;51.080;13.642;2023-08-30T13:35:50;21.70;92.20
74488;DHT22;63019;51.080;13.642;2023-08-30T13:36:58;21.80;92.30
74488;DHT22;63019;51.080;13.642;2023-08-30T13:38:00;21.80;92.60
74488;DHT22;63019;51.080;13.642;2023-08-30T13:39:17;21.80;91.90
74488;DHT22;63019;51.080;13.642;2023-08-30T13:40:22;21.90;92.00
74488;DHT22;63019;51.080;13.642;2023-08-30T13:41:24;22.00;91.30
74488;DHT22;63019;51.080;13.642;2023-08-30T13:42:26;22.20;91.80
74488;DHT22;63019;51.080;13.642;2023-08-30T13:43:29;22.30;92.00
74488;DHT22;63019;51.080;13.642;2023-08-30T13:44:31;22.50;91.70
74488;DHT22;63019;51.080;13.642;2023-08-30T13:45:49;22.70;91.20
74488;DHT22;63019;51.080;13.642;2023-08-30T13:47:01;22.80;90.20
74488;DHT22;63019;51.080;13.642;2023-08-30T13:48:12;22.90;89.50
74488;DHT22;63019;51.080;13.642;2023-08-30T13:49:15;23.10;89.60
74488;DHT22;63019;51.080;13.642;2023-08-30T13:50:17;23.10;89.50
74488;DHT22;63019;51.080;13.642;2023-08-30T13:51:24;23.10;89.60
74488;DHT22;63019;51.080;13.642;2023-08-30T13:52:26;23.20;90.80
74488;DHT22;63019;51.080;13.642;2023-08-30T13:53:35;23.30;89.50
74488;DHT22;63019;51.080;13.642;2023-08-30T13:54:39;23.30;90.00
74488;DHT22;63019;51.080;13.642;2023-08-30T13:55:48;23.40;88.90
74488;DHT22;63019;51.080;13.642;2023-08-30T13:56:50;23.50;87.80
74488;DHT22;63019;51.080;13.642;2023-08-30T13:57:53;23.60;89.20
74488;DHT22;63019;51.080;13.642;2023-08-30T13:59:04;23.80;88.30
74488;DHT22;63019;51.080;13.642;2023-08-30T14:00:10;23.80;86.60
74488;DHT22;63019;51.080;13.642;2023-08-30T14:01:12;23.90;87.50
74488;DHT22;63019;51.080;13.642;2023-08-30T14:02:17;23.90;87.60
74488;DHT22;63019;51.080;13.642;2023-08-30T14:03:22;23.90;87.40
74488;DHT22;63019;51.080;13.642;2023-08-30T14:04:24;24.00;85.60
74488;DHT22;63019;51.080;13.642;2023-08-30T14:05:29;23.90;86.50
74488;DHT22;63019;51.080;13.642;2023-08-30T14:06:35;24.00;87.00
74488;DHT22;63019;51.080;13.642;2023-08-30T14:07:38;23.90;85.90
74488;DHT22;63019;51.080;13.642;2023-08-30T14:08:40;23.90;87.60
74488;DHT22;63019;51.080;13.642;2023-08-30T14:09:42;23.90;87.60
74488;DHT22;63019;51.080;13.642;2023-08-30T14:10:44;23.90;89.00
74488;DHT22;63019;51.080;13.642;2023-08-30T14:11:49;24.10;88.70
74488;DHT22;63019;51.080;13.642;2023-08-30T14:12:51;24.00;86.30
74488;DHT22;63019;51.080;13.642;2023-08-30T14:13:55;24.10;86.80
74488;DHT22;63019;51.080;13.642;2023-08-30T14:15:05;24.00;82.80
74488;DHT22;63019;51.080;13.642;2023-08-30T14:16:19;23.90;84.10
74488;DHT22;63019;51.080;13.642;2023-08-30T14:17:21;24.10;82.40
74488;DHT22;63019;51.080;13.642;2023-08-30T14:18:26;24.20;84.80
74488;DHT22;63019;51.080;13.642;2023-08-30T14:19:28;24.40;84.00
74488;DHT22;63019;51.080;13.642;2023-08-30T14:20:30;24.60;81.90
74488;DHT22;63019;51.080;13.642;2023-08-30T14:21:32;24.60;81.20
74488;DHT22;63019;51.080;13.642;2023-08-30T14:22:34;24.60;83.30
74488;DHT22;63019;51.080;13.642;2023-08-30T14:23:36;24.60;82.30
74488;DHT22;63019;51.080;13.642;2023-08-30T14:24:41;24.60;82.60
74488;DHT22;63019;51.080;13.642;2023-08-30T14:26:06;24.50;84.80
74488;DHT22;63019;51.080;13.642;2023-08-30T14:27:13;24.40;81.90
74488;DHT22;63019;51.080;13.642;2023-08-30T14:28:15;24.40;83.00
74488;DHT22;63019;51.080;13.642;2023-08-30T14:29:20;24.40;83.00
74488;DHT22;63019;51.080;13.642;2023-08-30T14:30:23;24.10;81.70
74488;DHT22;63019;51.080;13.642;2023-08-30T14:31:25;23.90;82.90
74488;DHT22;63019;51.080;13.642;2023-08-30T14:32:30;23.80;85.20
74488;DHT22;63019;51.080;13.642;2023-08-30T14:33:36;23.90;86.20
74488;DHT22;63019;51.080;13.642;2023-08-30T14:34:39;23.90;86.30
74488;DHT22;63019;51.080;13.642;2023-08-30T14:35:43;24.00;84.80
74488;DHT22;63019;51.080;13.642;2023-08-30T14:36:52;24.10;84.00
74488;DHT22;63019;51.080;13.642;2023-08-30T14:37:54;24.20;83.10
74488;DHT22;63019;51.080;13.642;2023-08-30T14:38:56;24.20;82.70
74488;DHT22;63019;51.080;13.642;2023-08-30T14:39:59;24.30;83.00
74488;DHT22;63019;51.080;13.642;2023-08-30T14:41:01;24.20;82.60
74488;DHT22;63019;51.080;13.642;2023-08-30T14:42:03;24.20;81.80
74488;DHT22;63019;51.080;13.642;2023-08-30T14:43:05;24.10;82.20
74488;DHT22;63019;51.080;13.642;2023-08-30T14:44:08;24.00;81.50
74488;DHT22;63019;51.080;13.642;2023-08-30T14:45:10;23.80;82.50
74488;DHT22;63019;51.080;13.642;2023-08-30T14:46:12;23.80;83.10
74488;DHT22;63019;51.080;13.642;2023-08-30T14:47:19;23.60;82.20
74488;DHT22;63019;51.080;13.642;2023-08-30T14:48:32;23.50;83.80
74488;DHT22;63019;51.080;13.642;2023-08-30T14:49:37;23.50;84.50
74488;DHT22;63019;51.080;13.642;2023-08-30T14:50:40;23.40;82.70
74488;DHT22;63019;51.080;13.642;2023-08-30T14:51:42;23.40;83.60
74488;DHT22;63019;51.080;13.642;2023-08-30T14:52:44;23.30;85.00
74488;DHT22;63019;51.080;13.642;2023-08-30T14:53:49;23.10;82.90
74488;DHT22;63019;51.080;13.642;2023-08-30T14:54:57;23.00;85.50
74488;DHT22;63019;51.080;13.642;2023-08-30T14:55:59;23.10;85.40
74488;DHT22;63019;51.080;13.642;2023-08-30T14:57:02;23.20;86.20
74488;DHT22;63019;51.080;13.642;2023-08-30T14:58:04;23.20;86.60
74488;DHT22;63019;51.080;13.642;2023-08-30T14:59:06;23.20;87.10
74488;DHT22;63019;51.080;13.642;2023-08-30T15:00:12;23.30;88.20
74488;DHT22;63019;51.080;13.642;2023-08-30T15:01:14;23.30;85.70
74488;DHT22;63019;51.080;13.642;2023-08-30T15:02:17;23.40;84.90
74488;DHT22;63019;51.080;13.642;2023-08-30T15:03:19;23.40;85.00
74488;DHT22;63019;51.080;13.642;2023-08-30T15:04:21;23.40;87.60
74488;DHT22;63019;51.080;13.642;2023-08-30T15:05:27;23.40;85.40
74488;DHT22;63019;51.080;13.642;2023-08-30T15:06:29;23.30;87.00
74488;DHT22;63019;51.080;13.642;2023-08-30T15:07:32;23.40;84.20
74488;DHT22;63019;51.080;13.642;2023-08-30T15:08:34;23.20;84.70
74488;DHT22;63019;51.080;13.642;2023-08-30T15:09:38;23.10;84.20
74488;DHT22;63019;51.080;13.642;2023-08-30T15:10:40;22.90;85.90
74488;DHT22;63019;51.080;13.642;2023-08-30T15:11:43;22.90;87.30
74488;DHT22;63019;51.080;13.642;2023-08-30T15:12:46;22.90;86.00
74488;DHT22;63019;51.080;13.642;2023-08-30T15:13:50;22.90;85.50
74488;DHT22;63019;51.080;13.642;2023-08-30T15:14:52;22.80;85.90
74488;DHT22;63019;51.080;13.642;2023-08-30T15:15:55;22.80;85.40
74488;DHT22;63019;51.080;13.642;2023-08-30T15:16:57;22.80;85.20
74488;DHT22;63019;51.080;13.642;2023-08-30T15:17:59;22.80;83.20
74488;DHT22;63019;51.080;13.642;2023-08-30T15:19:02;22.80;83.90